sensor_id;sensor_type;location;lat;lon;timestamp;pressure;altitude;pressure_sealevel;temperature;humidity
16431;BME280;8325;49.284;7.238;2022-11-15T05:03:14;98250.78;;;10.51;100.00
16431;BME280;8325;49.284;7.238;2022-11-15T05:08:03;98250.34;;;10.48;100.00
16431;BME280;8325;49.284;7.238;2022-11-15T05:12:34;98247.72;;;10.48;100.00
16431;BME280;8325;49.284;7.238;2022-11-15T05:17:04;98261.59;;;10.48;100.00
16431;BME280;8325;49.284;7.238;2022-11-15T05:21:35;98264.75;;;10.44;100.00
16431;BME280;8325;49.284;7.238;2022-11-15T05:26:06;98254.47;;;10.42;100.00
16431;BME280;8325;49.284;7.238;2022-11-15T05:30:38;98259.88;;;10.41;100.00
16431;BME280;8325;49.284;7.238;2022-11-15T05:35:12;98262.31;;;10.42;100.00
16431;BME280;8325;49.284;7.238;2022-11-15T05:39:45;98252.22;;;10.39;100.00
16431;BME280;8325;49.284;7.238;2022-11-15T05:44:18;98253.03;;;10.40;100.00
16431;BME280;8325;49.284;7.238;2022-11-15T05:48:52;98248.88;;;10.45;100.00
16431;BME280;8325;49.284;7.238;2022-11-15T05:53:24;98238.81;;;10.42;100.00
16431;BME280;8325;49.284;7.238;2022-11-15T05:57:56;98248.16;;;10.36;100.00
16431;BME280;8325;49.284;7.238;2022-11-15T06:02:26;98241.50;;;10.34;100.00
16431;BME280;8325;49.284;7.238;2022-11-15T06:06:58;98243.31;;;10.33;100.00
16431;BME280;8325;49.284;7.238;2022-11-15T06:11:29;98247.91;;;10.31;100.00
16431;BME280;8325;49.284;7.238;2022-11-15T06:15:59;98256.56;;;10.32;100.00
16431;BME280;8325;49.284;7.238;2022-11-15T06:20:30;98248.88;;;10.30;100.00
16431;BME280;8325;49.284;7.238;2022-11-15T06:25:00;98259.31;;;10.30;100.00
16431;BME280;8325;49.284;7.238;2022-11-15T06:29:34;98260.47;;;10.28;100.00
16431;BME280;8325;49.284;7.238;2022-11-15T06:34:04;98244.66;;;10.29;100.00
16431;BME280;8325;49.284;7.238;2022-11-15T06:38:35;98253.66;;;10.27;100.00
16431;BME280;8325;49.284;7.238;2022-11-15T06:43:06;98251.69;;;10.29;100.00
16431;BME280;8325;49.284;7.238;2022-11-15T06:47:45;98252.50;;;10.29;100.00
16431;BME280;8325;49.284;7.238;2022-11-15T06:52:15;98254.75;;;10.32;100.00
16431;BME280;8325;49.284;7.238;2022-11-15T06:56:48;98260.31;;;10.29;100.00
16431;BME280;8325;49.284;7.238;2022-11-15T07:01:18;98267.34;;;10.29;100.00
16431;BME280;8325;49.284;7.238;2022-11-15T07:05:56;98275.00;;;10.30;100.00
16431;BME280;8325;49.284;7.238;2022-11-15T07:10:34;98270.41;;;10.32;100.00
16431;BME280;8325;49.284;7.238;2022-11-15T07:15:05;98274.38;;;10.28;100.00
16431;BME280;8325;49.284;7.238;2022-11-15T07:19:35;98273.38;;;10.29;100.00
16431;BME280;8325;49.284;7.238;2022-11-15T07:24:06;98268.16;;;10.29;100.00
16431;BME280;8325;49.284;7.238;2022-11-15T07:28:36;98269.75;;;10.30;100.00
16431;BME280;8325;49.284;7.238;2022-11-15T07:33:06;98257.88;;;10.28;100.00
16431;BME280;8325;49.284;7.238;2022-11-15T07:37:37;98258.16;;;10.33;100.00
16431;BME280;8325;49.284;7.238;2022-11-15T07:42:07;98261.06;;;10.38;100.00
16431;BME280;8325;49.284;7.238;2022-11-15T07:46:56;98268.69;;;10.40;100.00
16431;BME280;8325;49.284;7.238;2022-11-15T07:51:28;98258.09;;;10.41;100.00
16431;BME280;8325;49.284;7.238;2022-11-15T07:55:58;98259.53;;;10.44;100.00
16431;BME280;8325;49.284;7.238;2022-11-15T08:00:29;98255.91;;;10.45;100.00
16431;BME280;8325;49.284;7.238;2022-11-15T08:04:59;98259.53;;;10.44;100.00
16431;BME280;8325;49.284;7.238;2022-11-15T08:09:29;98255.56;;;10.48;100.00
16431;BME280;8325;49.284;7.238;2022-11-15T08:14:00;98254.75;;;10.47;100.00
16431;BME280;8325;49.284;7.238;2022-11-15T08:18:30;98251.34;;;10.47;100.00
16431;BME280;8325;49.284;7.238;2022-11-15T08:23:03;98246.13;;;10.47;100.00
16431;BME280;8325;49.284;7.238;2022-11-15T08:27:34;98247.38;;;10.51;100.00
16431;BME280;8325;49.284;7.238;2022-11-15T08:32:04;98241.13;;;10.52;100.00
16431;BME280;8325;49.284;7.238;2022-11-15T08:36:35;98232.94;;;10.55;100.00
16431;BME280;8325;49.284;7.238;2022-11-15T08:41:30;98224.38;;;10.61;100.00
16431;BME280;8325;49.284;7.238;2022-11-15T08:46:01;98226.91;;;10.69;100.00
16431;BME280;8325;49.284;7.238;2022-11-15T08:50:31;98222.19;;;10.79;100.00
16431;BME280;8325;49.284;7.238;2022-11-15T08:55:02;98215.06;;;10.88;100.00
16431;BME280;8325;49.284;7.238;2022-11-15T08:59:32;98211.88;;;10.93;100.00
16431;BME280;8325;49.284;7.238;2022-11-15T09:04:02;98208.91;;;10.96;100.00
16431;BME280;8325;49.284;7.238;2022-11-15T09:08:34;98207.56;;;11.00;100.00
16431;BME280;8325;49.284;7.238;2022-11-15T09:13:19;98204.38;;;11.04;100.00
16431;BME280;8325;49.284;7.238;2022-11-15T09:17:49;98216.09;;;11.09;99.74
16431;BME280;8325;49.284;7.238;2022-11-15T09:22:20;98215.91;;;11.10;99.01
16431;BME280;8325;49.284;7.238;2022-11-15T09:26:51;98215.16;;;11.16;99.18
16431;BME280;8325;49.284;7.238;2022-11-15T09:31:21;98222.25;;;11.22;98.83
16431;BME280;8325;49.284;7.238;2022-11-15T09:35:52;98225.50;;;11.24;98.26
16431;BME280;8325;49.284;7.238;2022-11-15T09:40:23;98205.84;;;11.28;98.78
16431;BME280;8325;49.284;7.238;2022-11-15T09:45:08;98204.06;;;11.36;98.48
16431;BME280;8325;49.284;7.238;2022-11-15T09:49:40;98201.72;;;11.41;97.33
16431;BME280;8325;49.284;7.238;2022-11-15T09:54:23;98185.91;;;11.49;96.89
16431;BME280;8325;49.284;7.238;2022-11-15T10:03:33;98173.19;;;11.67;95.25
16431;BME280;8325;49.284;7.238;2022-11-15T10:12:29;98160.06;;;11.89;94.37
16431;BME280;8325;49.284;7.238;2022-11-15T10:17:31;98143.22;;;11.98;93.11
16431;BME280;8325;49.284;7.238;2022-11-15T10:21:45;98146.03;;;11.96;91.89
16431;BME280;8325;49.284;7.238;2022-11-15T10:26:00;98139.59;;;11.99;91.72
16431;BME280;8325;49.284;7.238;2022-11-15T10:30:18;98126.38;;;12.07;91.90
16431;BME280;8325;49.284;7.238;2022-11-15T10:34:35;98134.03;;;12.15;90.91
16431;BME280;8325;49.284;7.238;2022-11-15T10:43:16;98115.22;;;12.47;90.27
16431;BME280;8325;49.284;7.238;2022-11-15T10:47:30;98111.25;;;12.57;89.25
16431;BME280;8325;49.284;7.238;2022-11-15T10:52:13;98108.06;;;12.69;87.82
16431;BME280;8325;49.284;7.238;2022-11-15T10:56:27;98096.97;;;12.80;85.48
16431;BME280;8325;49.284;7.238;2022-11-15T11:00:38;98084.50;;;12.82;83.70
16431;BME280;8325;49.284;7.238;2022-11-15T11:04:51;98071.78;;;12.79;83.64
16431;BME280;8325;49.284;7.238;2022-11-15T11:09:04;98060.91;;;12.75;83.25
16431;BME280;8325;49.284;7.238;2022-11-15T11:13:26;98063.31;;;12.77;82.56
16431;BME280;8325;49.284;7.238;2022-11-15T11:18:10;98062.09;;;12.86;83.44
16431;BME280;8325;49.284;7.238;2022-11-15T11:22:34;98057.69;;;12.93;83.29
16431;BME280;8325;49.284;7.238;2022-11-15T11:31:40;98046.81;;;12.96;80.66
16431;BME280;8325;49.284;7.238;2022-11-15T11:36:06;98035.69;;;13.07;80.89
16431;BME280;8325;49.284;7.238;2022-11-15T11:49:51;98016.13;;;13.17;78.63
16431;BME280;8325;49.284;7.238;2022-11-15T11:54:18;98012.31;;;13.19;76.57
16431;BME280;8325;49.284;7.238;2022-11-15T11:58:36;97996.34;;;13.21;76.54
16431;BME280;8325;49.284;7.238;2022-11-15T12:11:37;97963.44;;;13.51;78.63
16431;BME280;8325;49.284;7.238;2022-11-15T12:16:05;97957.53;;;13.63;78.33
16431;BME280;8325;49.284;7.238;2022-11-15T12:20:26;97957.91;;;13.73;77.12
16431;BME280;8325;49.284;7.238;2022-11-15T12:24:41;97947.81;;;13.70;76.91
16431;BME280;8325;49.284;7.238;2022-11-15T12:28:59;97933.94;;;13.63;77.75
16431;BME280;8325;49.284;7.238;2022-11-15T12:37:48;97922.00;;;13.67;77.35
16431;BME280;8325;49.284;7.238;2022-11-15T12:55:29;97898.66;;;13.45;77.69
16431;BME280;8325;49.284;7.238;2022-11-15T13:00:04;97891.44;;;13.41;77.07
16431;BME280;8325;49.284;7.238;2022-11-15T13:08:40;97882.56;;;13.35;79.07
16431;BME280;8325;49.284;7.238;2022-11-15T13:13:10;97879.56;;;13.31;79.48
16431;BME280;8325;49.284;7.238;2022-11-15T13:21:33;97881.38;;;13.31;79.83
16431;BME280;8325;49.284;7.238;2022-11-15T13:26:20;97872.13;;;13.28;79.36
16431;BME280;8325;49.284;7.238;2022-11-15T13:30:32;97867.06;;;13.27;79.05
16431;BME280;8325;49.284;7.238;2022-11-15T13:34:45;97859.19;;;13.27;79.39
16431;BME280;8325;49.284;7.238;2022-11-15T13:39:06;97847.91;;;13.20;78.91
16431;BME280;8325;49.284;7.238;2022-11-15T13:43:28;97835.81;;;13.25;79.91
16431;BME280;8325;49.284;7.238;2022-11-15T13:47:40;97828.94;;;13.31;79.51
16431;BME280;8325;49.284;7.238;2022-11-15T13:51:53;97819.25;;;13.31;78.68
16431;BME280;8325;49.284;7.238;2022-11-15T13:56:06;97807.72;;;13.32;78.80
16431;BME280;8325;49.284;7.238;2022-11-15T14:00:44;97789.59;;;13.24;78.40
16431;BME280;8325;49.284;7.238;2022-11-15T14:05:00;97796.25;;;13.20;79.21
16431;BME280;8325;49.284;7.238;2022-11-15T14:13:30;97786.63;;;13.07;80.45
16431;BME280;8325;49.284;7.238;2022-11-15T14:17:42;97784.66;;;13.03;80.66
16431;BME280;8325;49.284;7.238;2022-11-15T14:22:14;97767.28;;;13.02;81.31
16431;BME280;8325;49.284;7.238;2022-11-15T14:26:36;97771.56;;;12.96;81.57
16431;BME280;8325;49.284;7.238;2022-11-15T14:30:49;97758.88;;;12.93;81.90
16431;BME280;8325;49.284;7.238;2022-11-15T14:35:03;97752.59;;;13.01;82.40
16431;BME280;8325;49.284;7.238;2022-11-15T14:39:15;97750.75;;;13.01;83.56
16431;BME280;8325;49.284;7.238;2022-11-15T14:43:26;97751.78;;;13.00;82.13
16431;BME280;8325;49.284;7.238;2022-11-15T14:47:39;97746.34;;;12.95;82.70
16431;BME280;8325;49.284;7.238;2022-11-15T14:51:51;97736.28;;;12.92;82.37
16431;BME280;8325;49.284;7.238;2022-11-15T14:56:02;97733.25;;;12.95;82.13
16431;BME280;8325;49.284;7.238;2022-11-15T15:00:14;97730.88;;;12.87;82.78
16431;BME280;8325;49.284;7.238;2022-11-15T15:04:26;97720.41;;;12.80;83.27
16431;BME280;8325;49.284;7.238;2022-11-15T15:08:39;97717.81;;;12.74;83.49
16431;BME280;8325;49.284;7.238;2022-11-15T15:12:51;97717.66;;;12.69;83.79
16431;BME280;8325;49.284;7.238;2022-11-15T15:17:02;97721.09;;;12.62;84.21
16431;BME280;8325;49.284;7.238;2022-11-15T15:21:20;97717.88;;;12.60;83.66
16431;BME280;8325;49.284;7.238;2022-11-15T15:25:34;97701.78;;;12.57;84.12
16431;BME280;8325;49.284;7.238;2022-11-15T15:29:46;97690.31;;;12.51;84.13
16431;BME280;8325;49.284;7.238;2022-11-15T15:33:57;97679.03;;;12.51;83.80
16431;BME280;8325;49.284;7.238;2022-11-15T15:38:11;97676.81;;;12.48;83.58
16431;BME280;8325;49.284;7.238;2022-11-15T15:42:23;97676.44;;;12.44;83.21
16431;BME280;8325;49.284;7.238;2022-11-15T15:46:35;97676.19;;;12.52;82.98
16431;BME280;8325;49.284;7.238;2022-11-15T15:50:46;97675.59;;;12.43;83.00
16431;BME280;8325;49.284;7.238;2022-11-15T15:54:58;97674.41;;;12.39;83.24
16431;BME280;8325;49.284;7.238;2022-11-15T15:59:10;97673.44;;;12.34;83.76
16431;BME280;8325;49.284;7.238;2022-11-15T16:03:21;97674.47;;;12.26;83.65
16431;BME280;8325;49.284;7.238;2022-11-15T16:07:33;97665.41;;;12.22;84.50
16431;BME280;8325;49.284;7.238;2022-11-15T16:11:46;97661.41;;;12.19;84.11
16431;BME280;8325;49.284;7.238;2022-11-15T16:16:09;97666.41;;;12.21;84.28
16431;BME280;8325;49.284;7.238;2022-11-15T16:20:38;97669.66;;;12.16;84.30
16431;BME280;8325;49.284;7.238;2022-11-15T16:24:50;97658.59;;;12.14;84.20
16431;BME280;8325;49.284;7.238;2022-11-15T16:29:02;97654.78;;;12.10;85.53
16431;BME280;8325;49.284;7.238;2022-11-15T16:33:14;97653.56;;;12.06;86.01
16431;BME280;8325;49.284;7.238;2022-11-15T16:37:25;97648.53;;;12.05;86.31
16431;BME280;8325;49.284;7.238;2022-11-15T16:41:37;97641.69;;;11.97;85.73
16431;BME280;8325;49.284;7.238;2022-11-15T16:45:49;97644.31;;;11.97;86.02
16431;BME280;8325;49.284;7.238;2022-11-15T16:50:02;97639.91;;;11.91;86.43
16431;BME280;8325;49.284;7.238;2022-11-15T16:54:14;97645.53;;;11.88;86.81
16431;BME280;8325;49.284;7.238;2022-11-15T16:58:25;97636.72;;;11.89;86.25
16431;BME280;8325;49.284;7.238;2022-11-15T17:02:37;97635.69;;;11.90;86.29
16431;BME280;8325;49.284;7.238;2022-11-15T17:06:49;97622.59;;;11.90;85.85
16431;BME280;8325;49.284;7.238;2022-11-15T17:11:04;97618.56;;;11.94;84.90
16431;BME280;8325;49.284;7.238;2022-11-15T17:15:17;97626.25;;;11.89;85.34
16431;BME280;8325;49.284;7.238;2022-11-15T17:19:29;97631.88;;;11.86;85.40
16431;BME280;8325;49.284;7.238;2022-11-15T17:23:41;97621.78;;;11.83;86.18
16431;BME280;8325;49.284;7.238;2022-11-15T17:27:52;97630.63;;;11.82;86.47
16431;BME280;8325;49.284;7.238;2022-11-15T17:32:04;97621.19;;;11.81;86.31
16431;BME280;8325;49.284;7.238;2022-11-15T17:36:15;97622.19;;;11.80;86.07
16431;BME280;8325;49.284;7.238;2022-11-15T17:40:27;97612.53;;;11.80;86.58
16431;BME280;8325;49.284;7.238;2022-11-15T17:44:39;97626.41;;;11.81;87.27
16431;BME280;8325;49.284;7.238;2022-11-15T17:48:50;97624.63;;;11.74;88.17
16431;BME280;8325;49.284;7.238;2022-11-15T17:53:02;97620.19;;;11.68;88.91
16431;BME280;8325;49.284;7.238;2022-11-15T17:57:14;97616.16;;;11.66;89.40
16431;BME280;8325;49.284;7.238;2022-11-15T18:01:30;97613.78;;;11.64;89.92
16431;BME280;8325;49.284;7.238;2022-11-15T18:05:42;97607.31;;;11.60;90.15
16431;BME280;8325;49.284;7.238;2022-11-15T18:09:54;97601.50;;;11.58;89.77
16431;BME280;8325;49.284;7.238;2022-11-15T18:14:09;97592.03;;;11.57;90.28
16431;BME280;8325;49.284;7.238;2022-11-15T18:18:22;97577.97;;;11.58;90.29
16431;BME280;8325;49.284;7.238;2022-11-15T18:22:34;97581.00;;;11.55;90.68
16431;BME280;8325;49.284;7.238;2022-11-15T18:26:46;97579.97;;;11.56;91.20
16431;BME280;8325;49.284;7.238;2022-11-15T18:30:58;97572.34;;;11.55;91.12
16431;BME280;8325;49.284;7.238;2022-11-15T18:35:09;97570.94;;;11.52;91.26
16431;BME280;8325;49.284;7.238;2022-11-15T18:39:21;97571.94;;;11.51;91.67
16431;BME280;8325;49.284;7.238;2022-11-15T18:43:33;97567.94;;;11.48;91.86
16431;BME280;8325;49.284;7.238;2022-11-15T18:47:45;97569.13;;;11.46;91.54
16431;BME280;8325;49.284;7.238;2022-11-15T18:51:57;97563.69;;;11.47;91.69
16431;BME280;8325;49.284;7.238;2022-11-15T18:56:13;97562.69;;;11.48;91.30
16431;BME280;8325;49.284;7.238;2022-11-15T19:00:25;97551.41;;;11.48;91.54
16431;BME280;8325;49.284;7.238;2022-11-15T19:04:36;97551.63;;;11.46;90.89
16431;BME280;8325;49.284;7.238;2022-11-15T19:13:46;97541.34;;;11.45;91.81
16431;BME280;8325;49.284;7.238;2022-11-15T19:17:58;97529.72;;;11.41;92.38
16431;BME280;8325;49.284;7.238;2022-11-15T19:22:11;97528.50;;;11.43;92.66
16431;BME280;8325;49.284;7.238;2022-11-15T19:26:23;97530.13;;;11.38;92.90
16431;BME280;8325;49.284;7.238;2022-11-15T19:30:35;97527.91;;;11.35;93.35
16431;BME280;8325;49.284;7.238;2022-11-15T19:34:46;97519.88;;;11.29;93.78
16431;BME280;8325;49.284;7.238;2022-11-15T19:39:00;97517.47;;;11.28;94.92
16431;BME280;8325;49.284;7.238;2022-11-15T19:43:15;97514.84;;;11.28;94.83
16431;BME280;8325;49.284;7.238;2022-11-15T19:47:27;97513.66;;;11.24;95.53
16431;BME280;8325;49.284;7.238;2022-11-15T19:51:39;97512.44;;;11.20;96.09
16431;BME280;8325;49.284;7.238;2022-11-15T19:56:00;97507.44;;;11.18;95.94
16431;BME280;8325;49.284;7.238;2022-11-15T20:00:12;97500.56;;;11.17;96.62
16431;BME280;8325;49.284;7.238;2022-11-15T20:04:24;97507.22;;;11.13;97.33
16431;BME280;8325;49.284;7.238;2022-11-15T20:08:35;97502.22;;;11.12;97.31
16431;BME280;8325;49.284;7.238;2022-11-15T20:12:47;97495.56;;;11.09;98.30
16431;BME280;8325;49.284;7.238;2022-11-15T20:16:59;97479.09;;;11.09;97.93
16431;BME280;8325;49.284;7.238;2022-11-15T20:21:10;97485.53;;;11.06;98.34
16431;BME280;8325;49.284;7.238;2022-11-15T20:25:22;97492.34;;;11.07;98.70
16431;BME280;8325;49.284;7.238;2022-11-15T20:29:34;97488.72;;;11.08;98.74
16431;BME280;8325;49.284;7.238;2022-11-15T20:33:45;97494.16;;;11.06;99.04
16431;BME280;8325;49.284;7.238;2022-11-15T20:37:57;97497.59;;;11.07;99.68
16431;BME280;8325;49.284;7.238;2022-11-15T20:42:08;97507.25;;;11.00;100.00
16431;BME280;8325;49.284;7.238;2022-11-15T20:46:20;97491.16;;;10.96;100.00
16431;BME280;8325;49.284;7.238;2022-11-15T20:50:31;97492.38;;;10.94;100.00
16431;BME280;8325;49.284;7.238;2022-11-15T20:54:53;97483.91;;;10.92;100.00
16431;BME280;8325;49.284;7.238;2022-11-15T20:59:04;97479.50;;;10.86;100.00
16431;BME280;8325;49.284;7.238;2022-11-15T21:03:16;97475.47;;;10.83;100.00
16431;BME280;8325;49.284;7.238;2022-11-15T21:07:27;97478.72;;;10.85;100.00
16431;BME280;8325;49.284;7.238;2022-11-15T21:11:39;97473.09;;;10.81;100.00
16431;BME280;8325;49.284;7.238;2022-11-15T21:16:09;97453.16;;;10.80;100.00
16431;BME280;8325;49.284;7.238;2022-11-15T21:25:13;97454.00;;;10.81;100.00
16431;BME280;8325;49.284;7.238;2022-11-15T21:29:24;97452.19;;;10.81;100.00
16431;BME280;8325;49.284;7.238;2022-11-15T21:39:47;97443.97;;;10.78;100.00
16431;BME280;8325;49.284;7.238;2022-11-15T21:44:34;97439.13;;;10.75;100.00
16431;BME280;8325;49.284;7.238;2022-11-15T21:48:54;97432.09;;;10.75;100.00
16431;BME280;8325;49.284;7.238;2022-11-15T22:05:10;97434.91;;;10.74;100.00
16431;BME280;8325;49.284;7.238;2022-11-15T22:09:50;97419.44;;;10.72;100.00
16431;BME280;8325;49.284;7.238;2022-11-15T22:20:59;97418.03;;;10.70;100.00
16431;BME280;8325;49.284;7.238;2022-11-15T22:25:11;97401.16;;;10.59;100.00
16431;BME280;8325;49.284;7.238;2022-11-15T22:29:23;97402.38;;;10.63;100.00
